sensor_id;sensor_type;location;lat;lon;timestamp;temperature;humidity
31979;DHT22;18502;43.574;1.276;2023-02-26T00:02:25;6.40;99.90
31979;DHT22;18502;43.574;1.276;2023-02-26T00:04:50;6.40;99.90
31979;DHT22;18502;43.574;1.276;2023-02-26T00:07:16;6.40;99.90
31979;DHT22;18502;43.574;1.276;2023-02-26T00:09:42;6.40;99.90
31979;DHT22;18502;43.574;1.276;2023-02-26T00:12:13;6.40;99.90
31979;DHT22;18502;43.574;1.276;2023-02-26T00:14:39;6.40;99.90
31979;DHT22;18502;43.574;1.276;2023-02-26T00:17:57;6.40;99.90
31979;DHT22;18502;43.574;1.276;2023-02-26T00:20:20;6.50;99.90
31979;DHT22;18502;43.574;1.276;2023-02-26T00:22:46;6.40;99.90
31979;DHT22;18502;43.574;1.276;2023-02-26T00:25:12;6.40;99.90
31979;DHT22;18502;43.574;1.276;2023-02-26T00:27:38;6.40;99.90
31979;DHT22;18502;43.574;1.276;2023-02-26T00:30:07;6.40;99.90
31979;DHT22;18502;43.574;1.276;2023-02-26T00:32:33;6.40;99.90
31979;DHT22;18502;43.574;1.276;2023-02-26T00:35:00;6.40;99.90
31979;DHT22;18502;43.574;1.276;2023-02-26T00:37:44;6.40;99.90
31979;DHT22;18502;43.574;1.276;2023-02-26T00:42:48;6.40;99.90
31979;DHT22;18502;43.574;1.276;2023-02-26T00:45:14;6.40;99.90
31979;DHT22;18502;43.574;1.276;2023-02-26T00:47:49;6.40;99.90
31979;DHT22;18502;43.574;1.276;2023-02-26T00:50:24;6.40;99.90
31979;DHT22;18502;43.574;1.276;2023-02-26T00:55:37;6.40;99.90
31979;DHT22;18502;43.574;1.276;2023-02-26T00:58:03;6.40;99.90
31979;DHT22;18502;43.574;1.276;2023-02-26T01:00:29;6.40;99.90
31979;DHT22;18502;43.574;1.276;2023-02-26T01:02:55;6.40;99.90
31979;DHT22;18502;43.574;1.276;2023-02-26T01:05:21;6.30;99.90
31979;DHT22;18502;43.574;1.276;2023-02-26T01:08:12;6.30;99.90
31979;DHT22;18502;43.574;1.276;2023-02-26T01:10:40;6.30;99.90
31979;DHT22;18502;43.574;1.276;2023-02-26T01:13:06;6.30;99.90
31979;DHT22;18502;43.574;1.276;2023-02-26T01:15:32;6.30;99.90
31979;DHT22;18502;43.574;1.276;2023-02-26T01:18:22;6.30;99.90
31979;DHT22;18502;43.574;1.276;2023-02-26T01:20:58;6.30;99.90
31979;DHT22;18502;43.574;1.276;2023-02-26T01:23:26;6.30;99.90
31979;DHT22;18502;43.574;1.276;2023-02-26T01:25:58;6.20;99.90
31979;DHT22;18502;43.574;1.276;2023-02-26T01:28:25;6.20;99.90
31979;DHT22;18502;43.574;1.276;2023-02-26T01:30:57;6.20;99.90
31979;DHT22;18502;43.574;1.276;2023-02-26T01:33:32;6.10;99.90
31979;DHT22;18502;43.574;1.276;2023-02-26T01:36:19;6.10;99.90
31979;DHT22;18502;43.574;1.276;2023-02-26T01:42:00;6.00;99.90
31979;DHT22;18502;43.574;1.276;2023-02-26T01:44:58;6.00;99.90
31979;DHT22;18502;43.574;1.276;2023-02-26T01:50:20;5.90;99.90
31979;DHT22;18502;43.574;1.276;2023-02-26T01:55:13;5.90;99.90
31979;DHT22;18502;43.574;1.276;2023-02-26T01:57:40;5.80;99.90
31979;DHT22;18502;43.574;1.276;2023-02-26T02:00:06;5.80;99.90
31979;DHT22;18502;43.574;1.276;2023-02-26T02:02:32;5.70;99.90
31979;DHT22;18502;43.574;1.276;2023-02-26T02:05:03;5.70;99.90
31979;DHT22;18502;43.574;1.276;2023-02-26T02:07:29;5.70;99.90
31979;DHT22;18502;43.574;1.276;2023-02-26T02:09:55;5.70;99.90
31979;DHT22;18502;43.574;1.276;2023-02-26T02:12:48;5.70;99.90
31979;DHT22;18502;43.574;1.276;2023-02-26T02:24:00;5.70;99.90
31979;DHT22;18502;43.574;1.276;2023-02-26T02:29:08;5.70;99.90
31979;DHT22;18502;43.574;1.276;2023-02-26T02:31:45;5.60;99.90
31979;DHT22;18502;43.574;1.276;2023-02-26T02:34:33;5.60;99.90
31979;DHT22;18502;43.574;1.276;2023-02-26T02:37:04;5.60;99.90
31979;DHT22;18502;43.574;1.276;2023-02-26T02:40:55;5.60;99.90
31979;DHT22;18502;43.574;1.276;2023-02-26T02:43:01;5.60;99.90
31979;DHT22;18502;43.574;1.276;2023-02-26T02:48:15;5.50;99.90
31979;DHT22;18502;43.574;1.276;2023-02-26T02:51:03;5.50;99.90
31979;DHT22;18502;43.574;1.276;2023-02-26T02:53:42;5.50;99.90
31979;DHT22;18502;43.574;1.276;2023-02-26T02:56:20;5.40;99.90
31979;DHT22;18502;43.574;1.276;2023-02-26T02:58:52;5.40;99.90
31979;DHT22;18502;43.574;1.276;2023-02-26T03:01:21;5.30;99.90
31979;DHT22;18502;43.574;1.276;2023-02-26T03:04:08;5.30;99.90
31979;DHT22;18502;43.574;1.276;2023-02-26T03:06:34;5.30;99.90
31979;DHT22;18502;43.574;1.276;2023-02-26T03:09:01;5.30;99.90
31979;DHT22;18502;43.574;1.276;2023-02-26T03:11:29;5.30;99.90
31979;DHT22;18502;43.574;1.276;2023-02-26T03:13:55;5.20;99.90
31979;DHT22;18502;43.574;1.276;2023-02-26T03:16:53;5.20;99.90
31979;DHT22;18502;43.574;1.276;2023-02-26T03:19:48;5.20;99.90
31979;DHT22;18502;43.574;1.276;2023-02-26T03:22:23;5.20;99.90
31979;DHT22;18502;43.574;1.276;2023-02-26T03:25:13;5.20;99.90
31979;DHT22;18502;43.574;1.276;2023-02-26T03:30:21;5.20;99.90
31979;DHT22;18502;43.574;1.276;2023-02-26T03:36:00;5.20;99.90
31979;DHT22;18502;43.574;1.276;2023-02-26T03:38:41;5.20;99.90
31979;DHT22;18502;43.574;1.276;2023-02-26T03:41:12;5.10;99.90
31979;DHT22;18502;43.574;1.276;2023-02-26T03:43:55;5.10;99.90
31979;DHT22;18502;43.574;1.276;2023-02-26T03:46:29;5.10;99.90
31979;DHT22;18502;43.574;1.276;2023-02-26T03:48:59;5.10;99.90
31979;DHT22;18502;43.574;1.276;2023-02-26T03:51:28;5.10;99.90
31979;DHT22;18502;43.574;1.276;2023-02-26T03:54:25;5.10;99.90
31979;DHT22;18502;43.574;1.276;2023-02-26T03:56:48;5.10;99.90
31979;DHT22;18502;43.574;1.276;2023-02-26T03:59:15;5.00;99.90
31979;DHT22;18502;43.574;1.276;2023-02-26T04:05:00;5.00;99.90
31979;DHT22;18502;43.574;1.276;2023-02-26T04:07:01;5.00;99.90
31979;DHT22;18502;43.574;1.276;2023-02-26T04:09:28;4.90;99.90
31979;DHT22;18502;43.574;1.276;2023-02-26T04:11:54;4.90;99.90
31979;DHT22;18502;43.574;1.276;2023-02-26T04:14:21;4.90;99.90
31979;DHT22;18502;43.574;1.276;2023-02-26T04:16:47;4.90;99.90
31979;DHT22;18502;43.574;1.276;2023-02-26T04:19:13;4.90;99.90
31979;DHT22;18502;43.574;1.276;2023-02-26T04:21:39;4.80;99.90
31979;DHT22;18502;43.574;1.276;2023-02-26T04:24:04;4.80;99.90
31979;DHT22;18502;43.574;1.276;2023-02-26T04:26:30;4.80;99.90
31979;DHT22;18502;43.574;1.276;2023-02-26T04:28:56;4.80;99.90
31979;DHT22;18502;43.574;1.276;2023-02-26T04:31:21;4.80;99.90
31979;DHT22;18502;43.574;1.276;2023-02-26T04:33:47;4.80;99.90
31979;DHT22;18502;43.574;1.276;2023-02-26T04:36:13;4.80;99.90
31979;DHT22;18502;43.574;1.276;2023-02-26T04:38:39;4.80;99.90
31979;DHT22;18502;43.574;1.276;2023-02-26T04:41:05;4.80;99.90
31979;DHT22;18502;43.574;1.276;2023-02-26T04:43:31;4.80;99.90
31979;DHT22;18502;43.574;1.276;2023-02-26T04:45:57;4.80;99.90
31979;DHT22;18502;43.574;1.276;2023-02-26T04:48:23;4.70;99.90
31979;DHT22;18502;43.574;1.276;2023-02-26T04:50:49;4.70;99.90
31979;DHT22;18502;43.574;1.276;2023-02-26T04:53:14;4.70;99.90
31979;DHT22;18502;43.574;1.276;2023-02-26T04:55:40;4.70;99.90
31979;DHT22;18502;43.574;1.276;2023-02-26T04:58:07;4.60;99.90
31979;DHT22;18502;43.574;1.276;2023-02-26T05:00:33;4.70;99.90
31979;DHT22;18502;43.574;1.276;2023-02-26T05:02:59;4.60;99.90
31979;DHT22;18502;43.574;1.276;2023-02-26T05:05:24;4.60;99.90
31979;DHT22;18502;43.574;1.276;2023-02-26T05:07:50;4.60;99.90
31979;DHT22;18502;43.574;1.276;2023-02-26T05:10:19;4.60;99.90
31979;DHT22;18502;43.574;1.276;2023-02-26T05:12:45;4.60;99.90
31979;DHT22;18502;43.574;1.276;2023-02-26T05:15:11;4.50;99.90
31979;DHT22;18502;43.574;1.276;2023-02-26T05:17:36;4.50;99.90
31979;DHT22;18502;43.574;1.276;2023-02-26T05:20:04;4.50;99.90
31979;DHT22;18502;43.574;1.276;2023-02-26T05:22:30;4.50;99.90
31979;DHT22;18502;43.574;1.276;2023-02-26T05:24:55;4.50;99.90
31979;DHT22;18502;43.574;1.276;2023-02-26T05:27:21;4.40;99.90
31979;DHT22;18502;43.574;1.276;2023-02-26T05:29:46;4.50;99.90
31979;DHT22;18502;43.574;1.276;2023-02-26T05:32:12;4.50;99.90
31979;DHT22;18502;43.574;1.276;2023-02-26T05:34:38;4.40;99.90
31979;DHT22;18502;43.574;1.276;2023-02-26T05:37:04;4.40;99.90
31979;DHT22;18502;43.574;1.276;2023-02-26T05:39:29;4.40;99.90
31979;DHT22;18502;43.574;1.276;2023-02-26T05:41:55;4.40;99.90
31979;DHT22;18502;43.574;1.276;2023-02-26T05:44:22;4.40;99.90
31979;DHT22;18502;43.574;1.276;2023-02-26T05:46:47;4.40;99.90
31979;DHT22;18502;43.574;1.276;2023-02-26T05:49:13;4.30;99.90
31979;DHT22;18502;43.574;1.276;2023-02-26T05:51:38;4.30;99.90
31979;DHT22;18502;43.574;1.276;2023-02-26T05:54:05;4.30;99.90
31979;DHT22;18502;43.574;1.276;2023-02-26T05:56:30;4.30;99.90
31979;DHT22;18502;43.574;1.276;2023-02-26T05:58:56;4.20;99.90
31979;DHT22;18502;43.574;1.276;2023-02-26T06:01:22;4.20;99.90
31979;DHT22;18502;43.574;1.276;2023-02-26T06:03:48;4.10;99.90
31979;DHT22;18502;43.574;1.276;2023-02-26T06:06:14;4.10;99.90
31979;DHT22;18502;43.574;1.276;2023-02-26T06:08:42;4.10;99.90
31979;DHT22;18502;43.574;1.276;2023-02-26T06:11:08;4.10;99.90
31979;DHT22;18502;43.574;1.276;2023-02-26T06:13:34;4.10;99.90
31979;DHT22;18502;43.574;1.276;2023-02-26T06:15:59;4.10;99.90
31979;DHT22;18502;43.574;1.276;2023-02-26T06:18:25;4.10;99.90
31979;DHT22;18502;43.574;1.276;2023-02-26T06:20:51;4.10;99.90
31979;DHT22;18502;43.574;1.276;2023-02-26T06:23:16;4.10;99.90
31979;DHT22;18502;43.574;1.276;2023-02-26T06:25:42;4.00;99.90
31979;DHT22;18502;43.574;1.276;2023-02-26T06:28:08;3.90;99.90
31979;DHT22;18502;43.574;1.276;2023-02-26T06:30:34;3.80;99.90
31979;DHT22;18502;43.574;1.276;2023-02-26T06:33:00;3.80;99.90
31979;DHT22;18502;43.574;1.276;2023-02-26T06:35:26;3.80;99.90
31979;DHT22;18502;43.574;1.276;2023-02-26T06:37:54;3.80;99.90
31979;DHT22;18502;43.574;1.276;2023-02-26T06:40:20;3.90;99.90
31979;DHT22;18502;43.574;1.276;2023-02-26T06:42:46;3.80;99.90
31979;DHT22;18502;43.574;1.276;2023-02-26T06:45:12;3.90;99.90
31979;DHT22;18502;43.574;1.276;2023-02-26T06:47:38;3.90;99.90
31979;DHT22;18502;43.574;1.276;2023-02-26T06:50:04;3.90;99.90
31979;DHT22;18502;43.574;1.276;2023-02-26T06:52:29;3.90;99.90
31979;DHT22;18502;43.574;1.276;2023-02-26T06:54:55;3.90;99.90
31979;DHT22;18502;43.574;1.276;2023-02-26T06:57:21;4.00;99.90
31979;DHT22;18502;43.574;1.276;2023-02-26T06:59:46;4.00;99.90
31979;DHT22;18502;43.574;1.276;2023-02-26T07:02:18;4.00;99.90
31979;DHT22;18502;43.574;1.276;2023-02-26T07:04:44;4.00;99.90
31979;DHT22;18502;43.574;1.276;2023-02-26T07:07:10;4.00;99.90
31979;DHT22;18502;43.574;1.276;2023-02-26T07:09:36;4.00;99.90
31979;DHT22;18502;43.574;1.276;2023-02-26T07:12:02;4.10;99.90
31979;DHT22;18502;43.574;1.276;2023-02-26T07:14:27;4.10;99.90
31979;DHT22;18502;43.574;1.276;2023-02-26T07:16:53;4.10;99.90
31979;DHT22;18502;43.574;1.276;2023-02-26T07:19:19;4.10;99.90
31979;DHT22;18502;43.574;1.276;2023-02-26T07:21:44;4.10;99.90
31979;DHT22;18502;43.574;1.276;2023-02-26T07:24:10;4.20;99.90
31979;DHT22;18502;43.574;1.276;2023-02-26T07:26:36;4.20;99.90
31979;DHT22;18502;43.574;1.276;2023-02-26T07:29:01;4.20;99.90
31979;DHT22;18502;43.574;1.276;2023-02-26T07:31:27;4.20;99.90
31979;DHT22;18502;43.574;1.276;2023-02-26T07:33:53;4.20;99.90
31979;DHT22;18502;43.574;1.276;2023-02-26T07:36:18;4.20;99.90
31979;DHT22;18502;43.574;1.276;2023-02-26T07:38:44;4.30;99.90
31979;DHT22;18502;43.574;1.276;2023-02-26T07:41:10;4.30;99.90
31979;DHT22;18502;43.574;1.276;2023-02-26T07:43:35;4.40;99.90
31979;DHT22;18502;43.574;1.276;2023-02-26T07:46:02;4.40;99.90
31979;DHT22;18502;43.574;1.276;2023-02-26T07:48:27;4.40;99.90
31979;DHT22;18502;43.574;1.276;2023-02-26T07:50:53;4.50;99.90
31979;DHT22;18502;43.574;1.276;2023-02-26T07:53:20;4.50;99.90
31979;DHT22;18502;43.574;1.276;2023-02-26T07:55:46;4.50;99.90
31979;DHT22;18502;43.574;1.276;2023-02-26T07:58:12;4.50;99.90
31979;DHT22;18502;43.574;1.276;2023-02-26T08:00:37;4.60;99.90
31979;DHT22;18502;43.574;1.276;2023-02-26T08:03:03;4.60;99.90
31979;DHT22;18502;43.574;1.276;2023-02-26T08:05:29;4.60;99.90
31979;DHT22;18502;43.574;1.276;2023-02-26T08:07:54;4.60;99.90
31979;DHT22;18502;43.574;1.276;2023-02-26T08:10:20;4.60;99.90
31979;DHT22;18502;43.574;1.276;2023-02-26T08:12:46;4.70;99.90
31979;DHT22;18502;43.574;1.276;2023-02-26T08:15:12;4.70;99.90
31979;DHT22;18502;43.574;1.276;2023-02-26T08:17:39;4.70;99.90
31979;DHT22;18502;43.574;1.276;2023-02-26T08:20:06;4.90;99.90
31979;DHT22;18502;43.574;1.276;2023-02-26T08:22:32;4.80;99.90
31979;DHT22;18502;43.574;1.276;2023-02-26T08:24:58;4.80;99.90
31979;DHT22;18502;43.574;1.276;2023-02-26T08:27:24;4.90;99.90
31979;DHT22;18502;43.574;1.276;2023-02-26T08:29:50;5.00;99.90
31979;DHT22;18502;43.574;1.276;2023-02-26T08:32:17;5.20;99.90
31979;DHT22;18502;43.574;1.276;2023-02-26T08:34:44;5.20;99.90
31979;DHT22;18502;43.574;1.276;2023-02-26T08:37:10;5.30;99.90
31979;DHT22;18502;43.574;1.276;2023-02-26T08:39:36;5.30;99.90
31979;DHT22;18502;43.574;1.276;2023-02-26T08:42:07;5.50;99.90
31979;DHT22;18502;43.574;1.276;2023-02-26T08:44:33;5.40;99.90
31979;DHT22;18502;43.574;1.276;2023-02-26T08:46:59;5.80;99.90
31979;DHT22;18502;43.574;1.276;2023-02-26T08:49:25;5.90;99.90
31979;DHT22;18502;43.574;1.276;2023-02-26T08:51:50;6.20;99.90
31979;DHT22;18502;43.574;1.276;2023-02-26T08:54:16;6.10;99.90
31979;DHT22;18502;43.574;1.276;2023-02-26T08:56:42;6.00;99.90
31979;DHT22;18502;43.574;1.276;2023-02-26T08:59:07;5.90;99.90
31979;DHT22;18502;43.574;1.276;2023-02-26T09:01:34;5.90;99.90
31979;DHT22;18502;43.574;1.276;2023-02-26T09:04:00;6.10;99.90
31979;DHT22;18502;43.574;1.276;2023-02-26T09:06:26;6.20;99.90
31979;DHT22;18502;43.574;1.276;2023-02-26T09:08:51;6.10;99.90
31979;DHT22;18502;43.574;1.276;2023-02-26T09:11:17;5.90;99.90
31979;DHT22;18502;43.574;1.276;2023-02-26T09:13:43;5.90;99.90
31979;DHT22;18502;43.574;1.276;2023-02-26T09:16:09;5.70;99.90
31979;DHT22;18502;43.574;1.276;2023-02-26T09:18:35;5.60;99.90
31979;DHT22;18502;43.574;1.276;2023-02-26T09:21:00;5.70;99.90
31979;DHT22;18502;43.574;1.276;2023-02-26T09:23:27;5.50;99.90
31979;DHT22;18502;43.574;1.276;2023-02-26T09:25:53;5.40;99.90
31979;DHT22;18502;43.574;1.276;2023-02-26T09:28:20;6.10;99.90
31979;DHT22;18502;43.574;1.276;2023-02-26T09:30:46;8.50;99.90
31979;DHT22;18502;43.574;1.276;2023-02-26T09:33:12;9.80;99.90
31979;DHT22;18502;43.574;1.276;2023-02-26T09:35:38;10.50;99.90
31979;DHT22;18502;43.574;1.276;2023-02-26T09:38:03;10.90;99.90
31979;DHT22;18502;43.574;1.276;2023-02-26T09:46:00;12.70;99.90
31979;DHT22;18502;43.574;1.276;2023-02-26T09:48:29;12.90;99.90
31979;DHT22;18502;43.574;1.276;2023-02-26T09:50:57;11.70;99.90
31979;DHT22;18502;43.574;1.276;2023-02-26T09:53:30;11.50;99.90
31979;DHT22;18502;43.574;1.276;2023-02-26T09:56:18;10.70;99.90
31979;DHT22;18502;43.574;1.276;2023-02-26T09:58:46;11.70;99.90
31979;DHT22;18502;43.574;1.276;2023-02-26T10:06:43;12.00;99.90
31979;DHT22;18502;43.574;1.276;2023-02-26T10:12:02;11.60;99.90
31979;DHT22;18502;43.574;1.276;2023-02-26T10:14:36;10.80;99.90
31979;DHT22;18502;43.574;1.276;2023-02-26T10:22:54;14.80;99.90
31979;DHT22;18502;43.574;1.276;2023-02-26T10:25:23;13.90;99.90
31979;DHT22;18502;43.574;1.276;2023-02-26T10:30:57;15.40;99.90
31979;DHT22;18502;43.574;1.276;2023-02-26T10:36:44;15.90;99.90
31979;DHT22;18502;43.574;1.276;2023-02-26T10:42:20;14.20;97.70
31979;DHT22;18502;43.574;1.276;2023-02-26T10:45:40;14.60;98.40
31979;DHT22;18502;43.574;1.276;2023-02-26T10:50:20;14.40;92.60
31979;DHT22;18502;43.574;1.276;2023-02-26T10:52:48;15.80;93.00
31979;DHT22;18502;43.574;1.276;2023-02-26T10:55:29;13.40;92.30
31979;DHT22;18502;43.574;1.276;2023-02-26T10:58:11;14.40;93.70
31979;DHT22;18502;43.574;1.276;2023-02-26T11:00:39;14.90;92.10
31979;DHT22;18502;43.574;1.276;2023-02-26T11:03:09;15.70;92.70
31979;DHT22;18502;43.574;1.276;2023-02-26T11:05:36;16.80;85.10
31979;DHT22;18502;43.574;1.276;2023-02-26T11:08:41;15.10;90.10
31979;DHT22;18502;43.574;1.276;2023-02-26T11:11:07;11.80;92.10
31979;DHT22;18502;43.574;1.276;2023-02-26T11:13:37;12.60;88.60
31979;DHT22;18502;43.574;1.276;2023-02-26T11:16:14;15.80;88.30
31979;DHT22;18502;43.574;1.276;2023-02-26T11:18:47;15.40;87.40
31979;DHT22;18502;43.574;1.276;2023-02-26T11:21:26;18.20;77.10
31979;DHT22;18502;43.574;1.276;2023-02-26T11:23:58;14.80;75.80
31979;DHT22;18502;43.574;1.276;2023-02-26T11:26:26;11.70;86.30
31979;DHT22;18502;43.574;1.276;2023-02-26T11:28:57;12.50;87.90
31979;DHT22;18502;43.574;1.276;2023-02-26T11:31:25;11.70;90.80
31979;DHT22;18502;43.574;1.276;2023-02-26T11:33:52;10.10;92.10
31979;DHT22;18502;43.574;1.276;2023-02-26T11:36:25;9.50;93.90
31979;DHT22;18502;43.574;1.276;2023-02-26T11:38:56;11.30;91.70
31979;DHT22;18502;43.574;1.276;2023-02-26T11:41:24;12.70;90.60
31979;DHT22;18502;43.574;1.276;2023-02-26T11:44:19;11.10;91.70
31979;DHT22;18502;43.574;1.276;2023-02-26T11:46:55;11.10;92.20
31979;DHT22;18502;43.574;1.276;2023-02-26T11:49:24;10.00;93.20
31979;DHT22;18502;43.574;1.276;2023-02-26T11:54:37;11.60;91.00
31979;DHT22;18502;43.574;1.276;2023-02-26T11:57:18;11.20;91.90
31979;DHT22;18502;43.574;1.276;2023-02-26T11:59:48;10.80;90.10
31979;DHT22;18502;43.574;1.276;2023-02-26T12:02:17;11.90;90.70
31979;DHT22;18502;43.574;1.276;2023-02-26T12:04:44;16.10;83.20
31979;DHT22;18502;43.574;1.276;2023-02-26T12:07:14;11.40;86.20
31979;DHT22;18502;43.574;1.276;2023-02-26T12:09:40;10.00;90.80
31979;DHT22;18502;43.574;1.276;2023-02-26T12:12:18;12.90;86.50
31979;DHT22;18502;43.574;1.276;2023-02-26T12:26:06;9.80;83.10
31979;DHT22;18502;43.574;1.276;2023-02-26T12:40:04;9.00;83.10
31979;DHT22;18502;43.574;1.276;2023-02-26T13:01:54;16.40;66.80
31979;DHT22;18502;43.574;1.276;2023-02-26T13:04:45;17.80;64.80
31979;DHT22;18502;43.574;1.276;2023-02-26T13:08:08;15.60;59.50
31979;DHT22;18502;43.574;1.276;2023-02-26T13:20:55;16.60;61.10
31979;DHT22;18502;43.574;1.276;2023-02-26T13:23:30;15.30;58.40
31979;DHT22;18502;43.574;1.276;2023-02-26T13:26:04;15.70;58.80
31979;DHT22;18502;43.574;1.276;2023-02-26T13:34:01;15.50;57.00
31979;DHT22;18502;43.574;1.276;2023-02-26T13:36:29;18.00;53.00
31979;DHT22;18502;43.574;1.276;2023-02-26T13:39:27;17.20;52.90
31979;DHT22;18502;43.574;1.276;2023-02-26T13:47:38;16.30;47.70
31979;DHT22;18502;43.574;1.276;2023-02-26T13:56:15;18.70;44.00
31979;DHT22;18502;43.574;1.276;2023-02-26T13:58:47;20.50;43.00
31979;DHT22;18502;43.574;1.276;2023-02-26T14:01:28;14.90;46.80
31979;DHT22;18502;43.574;1.276;2023-02-26T14:06:47;16.20;46.80
31979;DHT22;18502;43.574;1.276;2023-02-26T14:14:37;24.50;28.50
31979;DHT22;18502;43.574;1.276;2023-02-26T14:19:35;22.20;24.30
31979;DHT22;18502;43.574;1.276;2023-02-26T14:25:17;21.10;22.70
31979;DHT22;18502;43.574;1.276;2023-02-26T14:27:46;23.50;22.90
31979;DHT22;18502;43.574;1.276;2023-02-26T14:30:33;21.30;22.20
31979;DHT22;18502;43.574;1.276;2023-02-26T14:35:41;24.20;18.70
31979;DHT22;18502;43.574;1.276;2023-02-26T14:38:13;24.50;18.20
31979;DHT22;18502;43.574;1.276;2023-02-26T14:40:58;23.30;15.50
31979;DHT22;18502;43.574;1.276;2023-02-26T14:43:43;24.50;17.40
31979;DHT22;18502;43.574;1.276;2023-02-26T14:46:10;19.60;18.30
31979;DHT22;18502;43.574;1.276;2023-02-26T14:48:37;18.50;20.50
31979;DHT22;18502;43.574;1.276;2023-02-26T14:53:59;18.80;18.30
31979;DHT22;18502;43.574;1.276;2023-02-26T15:02:31;20.40;14.30
31979;DHT22;18502;43.574;1.276;2023-02-26T15:08:02;22.30;12.80
31979;DHT22;18502;43.574;1.276;2023-02-26T15:23:46;18.80;15.60
31979;DHT22;18502;43.574;1.276;2023-02-26T15:26:26;22.70;14.20
31979;DHT22;18502;43.574;1.276;2023-02-26T15:28:52;24.50;13.60
31979;DHT22;18502;43.574;1.276;2023-02-26T15:31:31;17.70;15.20
31979;DHT22;18502;43.574;1.276;2023-02-26T15:33:58;14.60;18.50
31979;DHT22;18502;43.574;1.276;2023-02-26T15:36:27;13.80;20.50
31979;DHT22;18502;43.574;1.276;2023-02-26T15:38:58;12.30;22.00
31979;DHT22;18502;43.574;1.276;2023-02-26T15:41:26;11.80;23.10
31979;DHT22;18502;43.574;1.276;2023-02-26T15:44:04;11.80;23.80
31979;DHT22;18502;43.574;1.276;2023-02-26T15:46:38;12.00;23.70
31979;DHT22;18502;43.574;1.276;2023-02-26T15:49:19;13.20;23.30
31979;DHT22;18502;43.574;1.276;2023-02-26T15:51:48;12.80;21.80
31979;DHT22;18502;43.574;1.276;2023-02-26T15:54:21;15.60;21.70
31979;DHT22;18502;43.574;1.276;2023-02-26T15:56:48;18.30;17.70
31979;DHT22;18502;43.574;1.276;2023-02-26T15:59:21;19.70;16.00
31979;DHT22;18502;43.574;1.276;2023-02-26T16:01:48;20.30;15.50
31979;DHT22;18502;43.574;1.276;2023-02-26T16:04:17;20.30;14.70
31979;DHT22;18502;43.574;1.276;2023-02-26T16:06:46;20.20;14.30
31979;DHT22;18502;43.574;1.276;2023-02-26T16:09:28;19.90;14.60
31979;DHT22;18502;43.574;1.276;2023-02-26T16:11:57;19.20;14.30
31979;DHT22;18502;43.574;1.276;2023-02-26T16:14:29;17.50;16.10
31979;DHT22;18502;43.574;1.276;2023-02-26T16:16:56;18.60;15.50
31979;DHT22;18502;43.574;1.276;2023-02-26T16:19:34;18.40;15.10
31979;DHT22;18502;43.574;1.276;2023-02-26T16:22:06;18.50;15.40
31979;DHT22;18502;43.574;1.276;2023-02-26T16:24:35;18.70;15.40
31979;DHT22;18502;43.574;1.276;2023-02-26T16:27:04;18.10;15.10
31979;DHT22;18502;43.574;1.276;2023-02-26T16:29:34;18.00;16.00
31979;DHT22;18502;43.574;1.276;2023-02-26T16:32:03;17.30;16.20
31979;DHT22;18502;43.574;1.276;2023-02-26T16:34:47;16.90;16.90
31979;DHT22;18502;43.574;1.276;2023-02-26T16:40:32;15.90;16.90
31979;DHT22;18502;43.574;1.276;2023-02-26T16:47:57;11.40;22.00
31979;DHT22;18502;43.574;1.276;2023-02-26T16:50:27;10.10;23.80
31979;DHT22;18502;43.574;1.276;2023-02-26T16:53:17;9.50;25.30
31979;DHT22;18502;43.574;1.276;2023-02-26T16:55:52;9.00;25.80
31979;DHT22;18502;43.574;1.276;2023-02-26T16:58:19;9.00;26.30
31979;DHT22;18502;43.574;1.276;2023-02-26T17:00:51;8.80;26.90
31979;DHT22;18502;43.574;1.276;2023-02-26T17:03:23;8.50;26.80
31979;DHT22;18502;43.574;1.276;2023-02-26T17:06:10;8.30;28.10
31979;DHT22;18502;43.574;1.276;2023-02-26T17:08:50;8.10;28.40
31979;DHT22;18502;43.574;1.276;2023-02-26T17:11:38;7.80;28.50
31979;DHT22;18502;43.574;1.276;2023-02-26T17:14:23;7.60;29.00
31979;DHT22;18502;43.574;1.276;2023-02-26T17:16:50;7.40;29.20
31979;DHT22;18502;43.574;1.276;2023-02-26T17:19:17;7.10;29.20
31979;DHT22;18502;43.574;1.276;2023-02-26T17:21:52;7.10;30.20
31979;DHT22;18502;43.574;1.276;2023-02-26T17:24:36;6.90;30.40
31979;DHT22;18502;43.574;1.276;2023-02-26T17:27:06;6.70;30.80
31979;DHT22;18502;43.574;1.276;2023-02-26T17:29:43;6.70;30.50
31979;DHT22;18502;43.574;1.276;2023-02-26T17:32:16;6.50;31.00
31979;DHT22;18502;43.574;1.276;2023-02-26T17:34:42;6.40;30.90
31979;DHT22;18502;43.574;1.276;2023-02-26T17:37:11;6.20;31.90
31979;DHT22;18502;43.574;1.276;2023-02-26T17:39:36;6.20;31.60
31979;DHT22;18502;43.574;1.276;2023-02-26T17:42:02;6.10;31.90
31979;DHT22;18502;43.574;1.276;2023-02-26T17:44:28;6.00;32.20
31979;DHT22;18502;43.574;1.276;2023-02-26T17:46:54;6.00;32.90
31979;DHT22;18502;43.574;1.276;2023-02-26T17:49:19;6.10;31.70
31979;DHT22;18502;43.574;1.276;2023-02-26T17:51:45;6.10;31.40
31979;DHT22;18502;43.574;1.276;2023-02-26T17:54:11;6.00;31.40
31979;DHT22;18502;43.574;1.276;2023-02-26T17:56:36;6.10;31.90
31979;DHT22;18502;43.574;1.276;2023-02-26T17:59:03;6.00;32.50
31979;DHT22;18502;43.574;1.276;2023-02-26T18:01:29;6.00;32.90
31979;DHT22;18502;43.574;1.276;2023-02-26T18:03:56;6.00;32.60
31979;DHT22;18502;43.574;1.276;2023-02-26T18:06:23;6.00;32.80
31979;DHT22;18502;43.574;1.276;2023-02-26T18:08:49;6.00;33.20
31979;DHT22;18502;43.574;1.276;2023-02-26T18:11:16;6.00;32.80
31979;DHT22;18502;43.574;1.276;2023-02-26T18:13:42;6.00;33.50
31979;DHT22;18502;43.574;1.276;2023-02-26T18:16:19;6.00;34.20
31979;DHT22;18502;43.574;1.276;2023-02-26T18:18:45;6.00;34.20
31979;DHT22;18502;43.574;1.276;2023-02-26T18:21:11;6.00;34.10
31979;DHT22;18502;43.574;1.276;2023-02-26T18:23:37;6.00;34.10
31979;DHT22;18502;43.574;1.276;2023-02-26T18:26:03;6.00;34.30
31979;DHT22;18502;43.574;1.276;2023-02-26T18:28:30;5.90;34.80
31979;DHT22;18502;43.574;1.276;2023-02-26T18:30:56;5.90;33.30
31979;DHT22;18502;43.574;1.276;2023-02-26T18:33:22;5.80;33.60
31979;DHT22;18502;43.574;1.276;2023-02-26T18:35:52;5.70;33.00
31979;DHT22;18502;43.574;1.276;2023-02-26T18:38:23;5.70;32.60
31979;DHT22;18502;43.574;1.276;2023-02-26T18:40:49;5.60;33.10
31979;DHT22;18502;43.574;1.276;2023-02-26T18:43:15;5.60;32.80
31979;DHT22;18502;43.574;1.276;2023-02-26T18:45:42;5.50;32.90
31979;DHT22;18502;43.574;1.276;2023-02-26T18:48:11;5.40;32.90
31979;DHT22;18502;43.574;1.276;2023-02-26T18:50:38;5.30;32.10
31979;DHT22;18502;43.574;1.276;2023-02-26T18:53:03;5.20;32.70
31979;DHT22;18502;43.574;1.276;2023-02-26T18:55:29;5.10;33.20
31979;DHT22;18502;43.574;1.276;2023-02-26T18:57:55;5.00;33.10
31979;DHT22;18502;43.574;1.276;2023-02-26T19:00:22;4.90;33.40
31979;DHT22;18502;43.574;1.276;2023-02-26T19:02:48;4.90;33.40
31979;DHT22;18502;43.574;1.276;2023-02-26T19:05:14;4.70;33.00
31979;DHT22;18502;43.574;1.276;2023-02-26T19:07:41;4.60;33.60
31979;DHT22;18502;43.574;1.276;2023-02-26T19:10:10;4.40;34.20
31979;DHT22;18502;43.574;1.276;2023-02-26T19:12:38;4.20;34.70